PARDEE (PAR)

Elevation: 568' · MOKELUMNE R basin · Operator: East Bay Municipal Utility District

Provisional data, subject to change.
Query executed Friday at 13:12:31   clock

Select a sensor type for a plot of data.
Note: Reservoir Flows are daily averages.

Earlier

Date RES ELE    STORAGE    RES CHG    OUTFLOW    INFLOW    PPT INC   
 FEET   AF   AF   CFS   CFS   INCHES  
06/04/2015 559.93 181235 -269 664 377 0.00
06/05/2015 560.28 181988 753 144 149 0.00
06/06/2015 560.69 182857 869 152 426 0.00
06/07/2015 561.15 183821 964 154 451 0.00
06/08/2015 561.07 183655 -166 700 753 0.00
06/09/2015 560.91 183319 -336 697 370 0.00
06/10/2015 560.78 183052 -267 678 360 0.00
06/11/2015 560.77 183018 -34 662 358 0.00
06/12/2015 560.58 182624 -394 675 430 0.00
06/13/2015 560.95 183412 788 142 63 0.00
06/14/2015 561.37 184290 878 156 447 0.00
06/15/2015 561.19 183906 -384 697 665 0.00
06/16/2015 560.93 183357 -549 678 319 0.00
06/17/2015 560.63 182726 -631 703 251 0.00
06/18/2015 560.33 182081 -645 695 240 0.00
06/19/2015 559.82 181010 -1071 948 349 0.00
06/20/2015 559.99 181373 363 145 -120 0.00
06/21/2015 560.18 181763 390 151 308 0.00
06/22/2015 559.65 180658 -1105 958 627 0.00
06/23/2015 559.06 179421 -1237 957 253 0.00
06/24/2015 558.40 178044 -1377 949 122 0.00
06/25/2015 557.69 176578 -1466 952 96 0.00
06/26/2015 557.03 175208 -1370 944 54 0.00
06/27/2015 557.13 175415 207 141 -218 0.00
06/28/2015 557.23 175618 203 137 228 0.00
06/29/2015 557.27 175701 83 144 224 0.00
06/30/2015 557.03 175220 -481 550 256 0.00
07/01/2015 556.51 174145 -1075 965 340 0.00
07/02/2015 556.08 173264 -881 957 231 --
07/03/2015 -- -- -- -- -- --

Later | Latest

Warning! This data is preliminary and subject to revision.

Show PAR Map | Plot PAR Data | 1 Month PAR Data | Real-Time PAR Data | PAR Info